Terminal Aerodrome Forecast
Issued by NWS Milwaukee/Sullivan, WI

Home | Current Version | Previous Version | Text Only | Print | Product List | Glossary On
Versions: 1 2 3 4 5 6 7 8 9 10 11 12 13 14 15 16 17 18 19 20 21 22 23 24 25 26 27 28 29 30 31 32 33 34 35 36 37 38 39 40 41 42
000
FTUS43 KMKX 041317 AAA
TAFMSN
TAF AMD
KMSN 041317Z 0413/0512 15008KT 1SM -SN OVC008
      TEMPO 0416/0420 1/2SM SN OVC003
     FM042100 18009KT 1 1/2SM -SN OVC008
     FM042300 19008KT P6SM VCSH OVC008
     FM050000 20007KT P6SM OVC008
     FM050900 25005KT P6SM SCT030=

USA.gov is the U.S. government's official web portal to all federal, state and local government web resources and services.